Time;durP1;ratioP1;P1;durP2;ratioP2;P2;SDS_P1;SDS_P2;PMS_P1;PMS_P2;Temp;Humidity;BMP_temperature;BMP_pressure;BME280_temperature;BME280_humidity;BME280_pressure;Samples;Min_cycle;Max_cycle;Signal;HPM_P1;HPM_P2
2020/12/07 00:00:24;;;;;;;8.23;5.83;;;10.50;99.90;;;9.24;100.00;98612.09;5018052;27;99922;-60
2020/12/07 00:02:51;;;;;;;6.37;4.97;;;10.50;99.90;;;9.22;100.00;98617.63;5015432;27;100902;-62
2020/12/07 00:05:18;;;;;;;8.67;6.60;;;10.60;99.90;;;9.23;100.00;98631.78;5007257;27;101110;-62
2020/12/07 00:07:46;;;;;;;7.10;6.13;;;11.40;99.90;;;9.41;100.00;98623.31;5008649;27;100144;-62
2020/12/07 00:10:12;;;;;;;7.17;5.90;;;10.60;99.90;;;9.28;100.00;98627.53;5007982;27;100069;-62
2020/12/07 00:12:40;;;;;;;8.03;6.70;;;10.60;99.90;;;9.33;100.00;98626.97;5008108;27;100548;-62
2020/12/07 00:15:07;;;;;;;8.23;6.50;;;10.60;99.90;;;9.16;100.00;98623.69;5007732;27;100711;-63
2020/12/07 00:17:33;;;;;;;8.40;6.63;;;10.50;99.90;;;9.12;100.00;98619.78;5008849;27;100002;-62
2020/12/07 00:20:00;;;;;;;7.20;5.83;;;10.60;99.90;;;9.25;100.00;98630.59;5008439;27;100056;-62
2020/12/07 00:22:29;;;;;;;7.67;6.20;;;10.50;99.90;;;9.31;100.00;98616.47;5007594;27;101641;-62
2020/12/07 00:24:57;;;;;;;8.33;6.40;;;10.50;99.90;;;9.21;100.00;98618.63;5007499;27;100688;-62
2020/12/07 00:27:24;;;;;;;7.73;6.53;;;11.10;99.90;;;9.22;100.00;98608.78;5008144;27;100073;-62
2020/12/07 00:29:51;;;;;;;6.20;4.73;;;11.80;99.90;;;9.24;100.00;98618.25;5007551;27;100340;-63
2020/12/07 00:32:17;;;;;;;8.73;6.77;;;10.50;99.90;;;9.16;100.00;98618.38;5008673;27;99987;-62
2020/12/07 00:34:44;;;;;;;8.57;6.77;;;10.60;99.90;;;9.36;100.00;98627.41;5008059;27;100272;-62
2020/12/07 00:37:11;;;;;;;7.53;6.40;;;10.60;99.90;;;9.21;100.00;98613.31;5007750;27;100451;-62
2020/12/07 00:39:39;;;;;;;7.80;6.43;;;10.50;99.90;;;9.24;100.00;98612.94;5008062;27;99952;-62
2020/12/07 00:42:08;;;;;;;6.70;5.80;;;10.60;99.90;;;9.22;100.00;98616.78;5007972;27;100829;-63
2020/12/07 00:44:35;;;;;;;7.30;6.60;;;11.30;99.90;;;9.28;100.00;98600.84;5007329;27;100932;-62
2020/12/07 00:47:02;;;;;;;8.40;6.87;;;10.60;99.90;;;9.56;100.00;98608.06;5007598;27;100280;-62
2020/12/07 00:49:29;;;;;;;6.77;5.13;;;10.70;99.90;;;9.54;100.00;98618.94;5005236;27;100053;-62
2020/12/07 00:51:55;;;;;;;6.27;5.30;;;10.80;99.90;;;9.64;100.00;98614.09;5004887;27;103040;-62
2020/12/07 00:54:22;;;;;;;8.60;7.50;;;11.90;99.90;;;9.55;100.00;98620.59;5004763;27;102494;-62
2020/12/07 00:56:53;;;;;;;8.67;6.63;;;10.80;99.90;;;9.56;100.00;98618.75;5005839;27;100072;-63
2020/12/07 00:59:21;;;;;;;7.77;6.20;;;10.70;99.90;;;9.63;100.00;98615.13;5024792;27;100143;-62
2020/12/07 01:01:48;;;;;;;9.77;5.90;;;10.80;99.60;;;9.66;100.00;98612.06;5025521;27;102918;-62
2020/12/07 01:04:15;;;;;;;6.50;5.67;;;11.10;99.60;;;9.55;100.00;98611.75;5024936;27;102467;-62
2020/12/07 01:06:44;;;;;;;9.20;6.47;;;10.90;99.40;;;9.55;100.00;98596.56;5027622;27;100093;-62
2020/12/07 01:09:14;;;;;;;6.77;5.90;;;11.00;99.20;;;9.61;100.00;98589.63;5043160;27;100404;-62
2020/12/07 01:11:42;;;;;;;6.93;5.70;;;11.10;99.20;;;9.56;100.00;98581.38;5026570;27;101992;-62
2020/12/07 01:14:10;;;;;;;6.00;5.23;;;12.00;99.60;;;9.64;100.00;98586.59;5041890;27;102368;-62
2020/12/07 01:16:37;;;;;;;8.47;6.37;;;11.00;99.40;;;9.69;100.00;98579.63;5027472;27;100113;-62
2020/12/07 01:19:05;;;;;;;6.97;5.60;;;12.20;99.30;;;9.66;100.00;98579.19;5026136;27;100081;-62
2020/12/07 01:21:32;;;;;;;7.70;5.83;;;11.10;98.90;;;9.57;100.00;98573.16;5025189;27;102736;-62
2020/12/07 01:24:00;;;;;;;6.77;5.27;;;11.10;98.90;;;9.55;100.00;98574.38;5023824;27;102753;-62
2020/12/07 01:26:27;;;;;;;9.57;6.73;;;11.20;98.90;;;9.68;100.00;98575.31;5025137;27;99863;-62
2020/12/07 01:28:54;;;;;;;7.77;6.70;;;11.10;98.80;;;9.61;100.00;98569.09;5042380;27;100232;-62
2020/12/07 01:31:22;;;;;;;7.80;6.30;;;11.10;98.90;;;9.69;100.00;98582.31;5041520;27;103183;-62
2020/12/07 01:33:48;;;;;;;7.83;6.27;;;11.00;98.80;;;9.65;100.00;98578.34;5025418;27;102904;-62
2020/12/07 01:36:16;;;;;;;10.50;6.63;;;11.10;98.60;;;9.66;100.00;98576.50;5024628;27;100349;-63
2020/12/07 01:38:43;;;;;;;9.53;6.57;;;11.20;98.60;;;9.68;100.00;98558.47;5016820;27;100128;-62
2020/12/07 01:41:11;;;;;;;6.40;5.47;;;11.10;98.50;;;9.67;100.00;98557.63;5003790;27;102837;-62
2020/12/07 01:43:38;;;;;;;8.33;6.50;;;11.00;98.50;;;9.73;100.00;98556.88;5004842;27;102606;-62
2020/12/07 01:46:06;;;;;;;8.37;5.40;;;11.20;98.50;;;9.62;100.00;98560.06;5004353;27;100165;-63
2020/12/07 01:48:34;;;;;;;9.13;5.93;;;11.10;98.70;;;9.58;100.00;98553.47;5007003;27;99990;-62
2020/12/07 01:51:08;;;;;;;9.13;7.13;;;11.10;98.60;;;9.60;100.00;98551.44;5004117;27;103242;-62
2020/12/07 01:53:35;;;;;;;9.50;6.93;;;11.00;98.70;;;9.62;100.00;98545.91;5004695;27;102105;-62
2020/12/07 01:56:02;;;;;;;6.60;5.83;;;11.30;98.70;;;9.60;100.00;98540.75;5004298;27;99956;-62
2020/12/07 01:58:31;;;;;;;7.23;5.63;;;11.70;98.80;;;9.59;100.00;98533.75;5005147;27;100219;-62
2020/12/07 02:00:57;;;;;;;6.60;5.63;;;11.00;98.60;;;9.56;100.00;98528.78;5020952;27;102913;-62
2020/12/07 02:03:24;;;;;;;7.67;5.73;;;11.20;98.80;;;9.71;100.00;98528.69;5004249;27;103076;-62
2020/12/07 02:05:52;;;;;;;8.27;6.57;;;11.10;98.70;;;9.61;100.00;98521.03;5020274;27;101630;-63
2020/12/07 02:08:20;;;;;;;7.87;6.20;;;11.90;99.20;;;9.75;100.00;98519.28;5006609;27;100014;-62
2020/12/07 02:11:16;;;;;;;8.13;6.07;;;11.10;98.70;;;9.60;100.00;98511.38;4998818;27;100493;-62
2020/12/07 02:13:43;;;;;;;7.97;5.93;;;11.00;98.70;;;9.56;100.00;98511.94;5018688;27;102597;-62
2020/12/07 02:16:11;;;;;;;7.60;5.03;;;12.40;99.10;;;9.50;100.00;98516.25;5003746;27;100283;-62
2020/12/07 02:18:46;;;;;;;6.07;5.43;;;11.10;98.90;;;9.54;100.00;98517.47;5008067;27;100135;-63
2020/12/07 02:21:15;;;;;;;11.00;6.10;;;10.60;98.70;;;9.47;100.00;98513.13;5024061;27;102300;-62
2020/12/07 02:23:54;;;;;;;5.93;4.77;;;11.00;99.20;;;9.38;100.00;98509.78;5024134;27;102896;-62
2020/12/07 02:26:24;;;;;;;7.43;6.50;;;10.90;99.10;;;9.39;100.00;98511.44;5024240;27;100005;-64
2020/12/07 02:28:53;;;;;;;7.40;5.93;;;11.10;99.20;;;9.41;100.00;98513.88;5023845;27;100227;-62
2020/12/07 02:31:25;;;;;;;8.80;6.67;;;10.90;99.10;;;9.25;100.00;98507.84;5023014;27;102578;-62
2020/12/07 02:33:52;;;;;;;8.67;6.37;;;10.90;99.20;;;9.21;100.00;98509.22;5023754;27;102668;-63
2020/12/07 02:36:19;;;;;;;6.23;5.30;;;10.90;99.20;;;9.18;100.00;98519.44;5026759;27;100083;-61
2020/12/07 02:38:53;;;;;;;7.40;6.00;;;10.70;99.40;;;9.20;100.00;98512.09;5024331;27;100116;-62
2020/12/07 02:41:23;;;;;;;8.43;5.47;;;10.70;99.50;;;9.10;100.00;98519.59;5007349;27;100874;-62
2020/12/07 02:43:50;;;;;;;8.50;6.47;;;10.60;99.60;;;9.06;100.00;98526.31;5007262;27;102366;-62
2020/12/07 02:46:16;;;;;;;8.27;6.30;;;10.70;99.80;;;9.04;100.00;98523.00;5007225;27;100054;-62
2020/12/07 02:48:43;;;;;;;9.00;6.43;;;10.60;99.90;;;8.97;100.00;98530.97;5007799;27;100362;-61
2020/12/07 02:51:12;;;;;;;9.03;6.03;;;10.50;99.90;;;8.97;100.00;98523.78;5006885;27;101423;-62
2020/12/07 02:53:40;;;;;;;8.27;5.63;;;11.50;99.90;;;9.01;100.00;98526.91;5007301;27;101776;-62
2020/12/07 02:56:09;;;;;;;8.40;6.30;;;10.50;99.90;;;8.98;100.00;98530.78;5005993;27;100330;-62
2020/12/07 02:58:44;;;;;;;7.13;6.20;;;10.50;99.90;;;8.81;100.00;98512.53;5007795;27;100004;-62
2020/12/07 03:01:11;;;;;;;8.67;6.50;;;10.40;99.90;;;8.75;100.00;98514.13;5006201;27;103062;-62
2020/12/07 03:03:38;;;;;;;8.40;6.10;;;10.40;99.90;;;8.66;100.00;98517.91;5007069;27;102381;-63
2020/12/07 03:06:04;;;;;;;8.20;6.47;;;10.30;99.90;;;8.60;100.00;98511.50;5006889;27;100180;-62
2020/12/07 03:08:30;;;;;;;7.27;5.67;;;10.40;99.90;;;8.63;100.00;98518.31;5009360;27;99956;-62
2020/12/07 03:10:58;;;;;;;9.53;6.57;;;10.20;99.90;;;8.49;100.00;98520.00;5006337;27;103445;-62
2020/12/07 03:13:29;;;;;;;7.27;6.47;;;10.40;99.90;;;8.51;100.00;98525.97;5018091;27;102386;-62
2020/12/07 03:16:00;;;;;;;7.70;6.37;;;10.20;99.90;;;8.53;100.00;98513.25;5027322;27;99991;-62
2020/12/07 03:18:30;;;;;;;9.97;6.97;;;11.10;99.90;;;8.45;100.00;98497.41;5027526;27;100092;-62
2020/12/07 03:21:01;;;;;;;8.77;6.97;;;10.90;99.90;;;8.32;100.00;98509.72;5022585;27;102504;-61
2020/12/07 03:23:28;;;;;;;8.00;7.07;;;10.20;99.90;;;8.27;100.00;98504.94;5006615;27;102335;-62
2020/12/07 03:25:59;;;;;;;10.97;7.77;;;10.10;99.90;;;8.30;100.00;98515.22;5023646;27;100326;-62
2020/12/07 03:28:27;;;;;;;10.23;7.30;;;10.90;99.90;;;8.21;100.00;98497.69;5007283;27;100297;-62
2020/12/07 03:30:54;;;;;;;8.90;7.00;;;9.90;99.90;;;8.22;100.00;98505.50;5022942;27;103267;-62
2020/12/07 03:33:20;;;;;;;10.77;7.93;;;9.90;99.90;;;8.16;100.00;98506.22;5028880;27;102030;-62
2020/12/07 03:35:47;;;;;;;9.13;6.90;;;9.90;99.90;;;8.08;100.00;98511.66;5008161;27;100279;-62
2020/12/07 03:38:14;;;;;;;10.83;6.77;;;10.00;99.90;;;8.11;100.00;98502.50;5007129;27;100153;-63
2020/12/07 03:40:40;;;;;;;9.57;7.33;;;9.70;99.90;;;8.16;100.00;98502.78;5005878;27;102301;-62
2020/12/07 03:43:17;;;;;;;9.97;8.17;;;9.70;99.90;;;8.05;100.00;98498.72;5006503;27;101881;-61
2020/12/07 03:45:43;;;;;;;8.60;6.33;;;10.70;99.90;;;8.09;100.00;98502.66;5006187;27;100069;-62
2020/12/07 03:48:13;;;;;;;10.93;7.73;;;9.90;99.90;;;8.03;100.00;98495.44;5005917;27;100174;-62
2020/12/07 03:50:39;;;;;;;10.13;7.30;;;9.70;99.90;;;8.15;100.00;98496.63;5006090;27;103248;-62
2020/12/07 03:53:06;;;;;;;9.97;7.93;;;9.70;99.90;;;8.11;100.00;98495.31;5012864;27;102169;-61
2020/12/07 03:55:34;;;;;;;12.00;8.77;;;9.70;99.90;;;8.08;100.00;98493.03;5026619;27;100336;-61
2020/12/07 03:58:07;;;;;;;11.77;8.43;;;9.60;99.90;;;8.20;100.00;98490.72;5026228;27;100503;-62
2020/12/07 04:00:34;;;;;;;8.63;6.63;;;9.80;99.90;;;8.32;100.00;98496.41;5025333;27;103426;-62
2020/12/07 04:03:08;;;;;;;9.57;7.10;;;9.50;99.90;;;8.41;100.00;98496.09;5026639;27;102450;-62
2020/12/07 04:05:42;;;;;;;12.23;7.97;;;9.70;99.90;;;8.43;100.00;98493.25;5026159;27;100241;-63
2020/12/07 04:08:11;;;;;;;13.47;8.53;;;9.80;99.90;;;8.30;100.00;98489.41;5028017;27;100499;-62
2020/12/07 04:10:40;;;;;;;10.23;7.57;;;10.60;99.90;;;8.52;100.00;98481.50;5025374;27;102106;-62
2020/12/07 04:13:06;;;;;;;11.77;8.30;;;9.90;99.90;;;8.54;100.00;98474.09;5027143;27;100920;-62
2020/12/07 04:15:34;;;;;;;9.90;7.00;;;10.00;99.90;;;8.59;100.00;98490.38;5028344;27;99981;-62
2020/12/07 04:18:01;;;;;;;9.90;7.77;;;10.00;99.90;;;8.64;100.00;98499.47;5028287;27;100100;-62
2020/12/07 04:20:28;;;;;;;10.63;8.00;;;10.10;99.90;;;8.62;100.00;98500.66;5028489;27;100616;-62
2020/12/07 04:22:54;;;;;;;10.13;7.30;;;10.00;99.90;;;8.56;100.00;98504.91;5027507;27;101347;-62
2020/12/07 04:25:21;;;;;;;9.57;7.73;;;10.00;99.90;;;8.57;100.00;98505.72;5027926;27;100039;-62
2020/12/07 04:27:47;;;;;;;9.87;7.47;;;10.70;99.90;;;8.57;100.00;98506.56;5009122;27;101889;-62
2020/12/07 04:30:14;;;;;;;8.93;7.23;;;10.20;99.90;;;8.60;100.00;98516.84;5008862;27;100107;-62
2020/12/07 04:32:41;;;;;;;10.80;8.03;;;10.20;99.90;;;8.60;100.00;98508.03;5010434;27;101424;-63
2020/12/07 04:35:08;;;;;;;10.80;8.13;;;10.20;99.90;;;8.54;100.00;98503.44;5027453;27;100461;-62
2020/12/07 04:37:34;;;;;;;8.87;7.23;;;10.20;99.90;;;8.50;100.00;98510.16;5027691;27;99980;-62
2020/12/07 04:40:01;;;;;;;11.33;7.80;;;11.20;99.90;;;8.47;100.00;98516.69;5027473;27;101280;-63
2020/12/07 04:42:29;;;;;;;15.27;8.57;;;10.30;99.90;;;8.43;100.00;98515.41;5027766;27;100367;-62
2020/12/07 04:44:55;;;;;;;14.10;7.57;;;10.20;99.90;;;8.39;100.00;98521.31;5027836;27;100239;-62
2020/12/07 04:47:24;;;;;;;9.47;6.77;;;10.10;99.90;;;8.34;100.00;98521.88;5027868;27;100070;-62
2020/12/07 04:49:54;;;;;;;11.47;8.97;;;10.10;99.90;;;8.34;100.00;98532.53;5027668;27;101119;-62
2020/12/07 04:52:20;;;;;;;14.40;8.37;;;10.80;99.90;;;8.34;100.00;98555.69;5028124;27;100669;-62
2020/12/07 04:54:49;;;;;;;10.10;8.43;;;10.10;99.90;;;8.29;100.00;98551.69;5010867;27;99974;-62
2020/12/07 04:57:16;;;;;;;10.63;8.80;;;9.50;99.90;;;8.27;100.00;98551.06;5008224;27;100110;-63
2020/12/07 04:59:43;;;;;;;10.93;7.80;;;10.10;99.90;;;8.23;100.00;98556.94;5003298;27;101729;-62
2020/12/07 05:02:10;;;;;;;13.77;8.00;;;10.10;99.90;;;8.23;100.00;98546.28;5007060;27;100990;-63
2020/12/07 05:04:37;;;;;;;13.03;8.77;;;10.20;99.90;;;8.20;100.00;98541.34;5008857;27;100138;-62
2020/12/07 05:07:05;;;;;;;12.47;8.27;;;10.00;99.90;;;8.18;100.00;98552.16;5007238;27;100135;-62
2020/12/07 05:09:33;;;;;;;11.07;8.30;;;10.10;99.90;;;8.15;100.00;98560.56;5006943;27;100916;-64
2020/12/07 05:12:02;;;;;;;12.07;8.30;;;10.10;99.90;;;8.16;100.00;98553.38;5006701;27;100292;-63
2020/12/07 05:14:29;;;;;;;10.40;8.13;;;10.20;99.90;;;8.20;100.00;98549.31;5020801;27;100098;-62
2020/12/07 05:16:56;;;;;;;11.00;7.97;;;10.00;99.90;;;8.16;100.00;98548.06;5027814;27;99937;-61
2020/12/07 05:19:23;;;;;;;11.73;8.67;;;9.90;99.90;;;8.13;100.00;98554.56;5026796;27;101157;-62
2020/12/07 05:21:52;;;;;;;12.93;9.07;;;10.10;99.90;;;8.11;100.00;98551.28;5031273;27;100921;-63
2020/12/07 05:24:19;;;;;;;9.13;7.50;;;10.00;99.90;;;8.12;100.00;98557.41;5034185;27;100241;-61
2020/12/07 05:26:46;;;;;;;11.67;8.07;;;11.10;99.90;;;8.17;100.00;98557.69;5027019;27;100145;-62
2020/12/07 05:29:16;;;;;;;11.10;8.60;;;10.80;99.90;;;8.23;100.00;98565.78;5027081;27;101251;-61
2020/12/07 05:31:44;;;;;;;11.77;8.43;;;10.00;99.90;;;8.24;100.00;98572.75;5027680;27;100112;-65
2020/12/07 05:34:11;;;;;;;8.50;7.30;;;9.90;99.90;;;8.34;100.00;98575.16;5022086;27;99680;-64
2020/12/07 05:36:39;;;;;;;11.13;8.17;;;10.10;99.90;;;8.46;100.00;98578.19;5030470;27;99483;-65
2020/12/07 05:39:06;;;;;;;9.67;7.67;;;10.00;99.90;;;8.57;100.00;98588.38;5022803;27;100293;-63
2020/12/07 05:41:34;;;;;;;8.90;7.70;;;10.00;99.90;;;8.62;100.00;98604.63;5006670;27;101118;-63
2020/12/07 05:44:04;;;;;;;8.37;7.43;;;10.20;99.90;;;8.94;100.00;98606.03;5004788;27;100252;-63
2020/12/07 05:46:33;;;;;;;10.80;7.60;;;10.10;99.90;;;8.80;100.00;98620.22;5005948;27;100007;-63
2020/12/07 05:49:00;;;;;;;9.37;7.73;;;11.70;99.90;;;9.00;100.00;98624.78;5015228;27;101493;-62
2020/12/07 05:51:27;;;;;;;7.87;6.53;;;10.30;99.90;;;9.02;100.00;98616.59;5025920;27;101069;-63
2020/12/07 05:53:54;;;;;;;11.53;7.63;;;10.50;99.90;;;9.14;100.00;98635.59;5018204;27;100033;-61
2020/12/07 05:56:21;;;;;;;9.70;7.80;;;11.00;99.90;;;9.34;100.00;98641.97;5006460;27;100133;-62
2020/12/07 05:59:01;;;;;;;9.70;7.70;;;10.60;99.90;;;9.35;100.00;98644.44;5007392;27;100136;-63
2020/12/07 06:01:28;;;;;;;10.17;8.70;;;10.70;99.90;;;9.50;100.00;98651.56;5010196;27;99862;-61
2020/12/07 06:03:56;;;;;;;9.50;7.97;;;10.60;99.90;;;9.58;100.00;98646.09;5007529;27;100096;-64
2020/12/07 06:06:31;;;;;;;9.83;8.47;;;11.70;99.90;;;9.62;100.00;98658.88;5007260;27;100021;-62
2020/12/07 06:09:02;;;;;;;9.83;8.37;;;10.90;99.90;;;9.60;100.00;98663.59;5003489;27;101053;-63
2020/12/07 06:11:33;;;;;;;10.20;8.40;;;11.10;99.90;;;9.59;100.00;98661.94;5005142;27;101075;-63
2020/12/07 06:14:03;;;;;;;10.67;8.73;;;11.30;99.60;;;9.58;100.00;98656.78;5013647;27;100237;-63
2020/12/07 06:16:36;;;;;;;12.30;8.97;;;11.10;99.20;;;9.53;100.00;98657.34;5027554;27;100252;-64
2020/12/07 06:19:12;;;;;;;9.60;8.70;;;11.20;99.10;;;9.49;100.00;98666.75;5026816;27;101181;-64
2020/12/07 06:21:45;;;;;;;9.97;8.97;;;11.20;99.00;;;9.42;100.00;98665.84;5027270;27;100612;-63
2020/12/07 06:24:11;;;;;;;12.97;8.87;;;11.90;99.10;;;9.41;100.00;98660.69;5026792;27;100292;-62
2020/12/07 06:26:38;;;;;;;13.70;9.17;;;12.10;99.00;;;9.38;100.00;98671.78;5027253;27;100148;-63
2020/12/07 06:29:06;;;;;;;10.57;8.87;;;11.20;98.70;;;9.41;100.00;98674.88;5027351;27;100909;-62
2020/12/07 06:31:37;;;;;;;11.70;9.03;;;11.30;98.80;;;9.35;100.00;98681.81;5027857;27;101061;-62
2020/12/07 06:34:10;;;;;;;10.80;9.53;;;11.10;98.80;;;9.37;100.00;98681.63;5017886;27;99952;-63
2020/12/07 06:36:39;;;;;;;11.90;9.13;;;11.10;98.80;;;9.36;100.00;98694.16;5007062;27;100431;-63
2020/12/07 06:39:07;;;;;;;11.90;9.80;;;11.10;98.70;;;9.33;100.00;98694.53;5005828;27;101144;-63
2020/12/07 06:41:36;;;;;;;10.50;9.20;;;11.20;98.80;;;9.27;100.00;98692.59;5006460;27;101247;-63
2020/12/07 06:44:08;;;;;;;10.43;9.30;;;10.60;98.70;;;9.30;100.00;98694.88;5006852;27;99951;-63
2020/12/07 06:46:54;;;;;;;10.47;9.17;;;11.20;98.90;;;9.34;100.00;98700.69;5006826;27;100183;-63
2020/12/07 06:49:26;;;;;;;11.00;9.70;;;11.10;98.70;;;9.27;100.00;98697.13;5007154;27;101375;-63
2020/12/07 06:52:01;;;;;;;13.07;9.97;;;11.20;98.80;;;9.22;100.00;98704.88;5004684;27;101310;-62
2020/12/07 06:57:24;;;;;;;13.17;10.90;;;11.80;99.20;;;9.25;100.00;98710.66;5009258;27;100121;-62
2020/12/07 07:00:07;;;;;;;13.93;11.10;;;11.00;98.90;;;9.17;100.00;98718.75;5026461;27;101233;-64
2020/12/07 07:02:34;;;;;;;13.23;10.37;;;11.40;99.20;;;9.17;100.00;98713.41;5026930;27;100674;-63
2020/12/07 07:05:01;;;;;;;11.37;9.90;;;11.00;99.00;;;9.16;100.00;98709.09;5026541;27;100005;-61
2020/12/07 07:07:30;;;;;;;12.97;10.83;;;11.90;99.50;;;9.15;100.00;98719.97;5026368;27;100102;-62
2020/12/07 07:09:58;;;;;;;13.60;11.77;;;11.10;99.20;;;9.10;100.00;98725.88;5027065;27;101591;-62
2020/12/07 07:12:25;;;;;;;12.63;10.83;;;11.00;99.30;;;9.13;100.00;98722.84;5026677;27;100783;-63
2020/12/07 07:14:53;;;;;;;15.13;11.60;;;11.00;99.30;;;9.13;100.00;98717.50;5010857;27;100446;-63
2020/12/07 07:17:21;;;;;;;14.57;11.13;;;11.30;99.40;;;9.10;100.00;98727.72;5006785;27;100285;-63
2020/12/07 07:19:48;;;;;;;14.73;12.20;;;11.00;99.40;;;9.05;100.00;98736.25;5006533;27;100951;-62
2020/12/07 07:22:15;;;;;;;14.33;11.77;;;10.90;99.60;;;9.05;100.00;98744.25;5005725;27;100601;-63
2020/12/07 07:24:48;;;;;;;14.03;11.70;;;10.90;99.60;;;9.02;100.00;98736.66;5023073;27;100197;-63
2020/12/07 07:30:00;;;;;;;13.57;11.93;;;11.40;99.70;;;8.98;100.00;98740.69;5025573;27;101611;-62
2020/12/07 07:32:27;;;;;;;14.07;12.27;;;10.90;99.90;;;8.97;100.00;98747.88;5026247;27;100939;-62
2020/12/07 07:34:53;;;;;;;14.83;12.63;;;10.90;99.90;;;8.91;100.00;98745.09;5008237;27;100220;-63
2020/12/07 07:37:20;;;;;;;12.83;10.73;;;12.10;99.90;;;8.91;100.00;98737.09;5006242;27;100078;-63
2020/12/07 07:39:47;;;;;;;15.37;13.63;;;10.80;99.90;;;8.96;100.00;98748.88;5005945;27;100366;-62
2020/12/07 07:42:15;;;;;;;15.37;12.83;;;10.90;99.90;;;8.91;100.00;98759.25;5006271;27;100784;-62
2020/12/07 07:44:46;;;;;;;13.93;12.17;;;11.60;99.90;;;8.89;100.00;98757.81;5005673;27;100259;-63
2020/12/07 07:47:18;;;;;;;15.77;13.50;;;11.40;99.90;;;8.93;100.00;98762.59;5006297;27;100264;-62
2020/12/07 08:18:17;;;;;;;14.37;12.07;;;10.50;99.90;;;8.77;100.00;98778.78;5022861;27;99879;-62
2020/12/07 08:20:52;;;;;;;13.03;11.00;;;10.70;99.90;;;8.78;100.00;98788.41;5017954;27;100442;-62
2020/12/07 08:23:27;;;;;;;16.10;14.40;;;10.60;99.90;;;8.74;100.00;98784.47;5005584;27;101269;-64
2020/12/07 08:25:54;;;;;;;15.30;12.27;;;10.70;99.90;;;8.76;100.00;98785.13;5004969;27;100653;-63
2020/12/07 08:28:30;;;;;;;14.23;11.53;;;10.70;99.90;;;8.74;100.00;98789.81;5004205;27;100136;-62
2020/12/07 08:31:10;;;;;;;13.53;11.73;;;11.40;99.90;;;8.75;100.00;98782.63;5005537;27;99926;-63
2020/12/07 08:33:39;;;;;;;13.57;11.37;;;10.60;99.90;;;8.71;100.00;98792.84;5004412;27;101271;-63
2020/12/07 08:36:08;;;;;;;13.03;11.67;;;11.70;99.90;;;8.69;100.00;98794.84;5023822;27;100434;-63
2020/12/07 08:38:38;;;;;;;13.27;11.33;;;10.60;99.90;;;8.67;100.00;98796.03;5024967;27;100163;-62
2020/12/07 08:41:13;;;;;;;15.03;12.00;;;10.50;99.90;;;8.68;100.00;98809.19;5006118;27;100169;-61
2020/12/07 08:43:42;;;;;;;13.33;11.47;;;10.70;99.90;;;8.64;100.00;98799.91;5005049;27;100588;-63
2020/12/07 08:46:15;;;;;;;14.20;11.53;;;10.50;99.90;;;8.64;100.00;98813.25;5005011;27;100770;-63
2020/12/07 08:48:41;;;;;;;14.00;12.23;;;10.70;99.90;;;8.69;100.00;98818.03;5003952;27;99984;-63
2020/12/07 08:51:09;;;;;;;12.80;11.37;;;10.50;99.90;;;8.64;100.00;98816.75;5004708;27;99920;-63
2020/12/07 08:53:37;;;;;;;13.30;11.10;;;10.70;99.90;;;8.63;100.00;98823.09;5004623;27;100426;-63
2020/12/07 08:56:06;;;;;;;15.17;11.30;;;10.60;99.90;;;8.60;100.00;98827.94;5004439;27;100629;-62
2020/12/07 08:58:33;;;;;;;16.07;12.70;;;11.50;99.90;;;8.61;100.00;98827.78;5004761;27;100262;-63
2020/12/07 09:01:02;;;;;;;13.53;11.33;;;11.20;99.90;;;8.64;100.00;98814.09;5005331;27;100237;-62
2020/12/07 09:03:28;;;;;;;15.67;12.17;;;10.60;99.90;;;8.62;100.00;98816.09;5011617;27;100812;-63
2020/12/07 09:05:55;;;;;;;14.90;12.83;;;10.50;99.90;;;8.60;100.00;98823.44;5025112;27;100536;-62
2020/12/07 09:08:21;;;;;;;14.33;12.53;;;10.50;99.90;;;8.58;100.00;98824.63;5015018;27;100075;-62
2020/12/07 09:10:49;;;;;;;13.40;12.00;;;10.60;99.90;;;8.61;100.00;98832.28;5008668;27;100232;-63
2020/12/07 09:13:15;;;;;;;13.20;11.20;;;11.60;99.90;;;8.55;100.00;98833.81;5005115;27;101006;-63
2020/12/07 09:15:41;;;;;;;14.50;11.97;;;11.40;99.90;;;8.54;100.00;98837.47;5027018;27;100463;-63
2020/12/07 09:18:08;;;;;;;13.73;12.03;;;10.40;99.90;;;8.53;100.00;98841.16;5026555;27;100252;-62
2020/12/07 09:20:34;;;;;;;13.60;11.80;;;10.60;99.90;;;8.59;100.00;98842.28;5024820;27;100375;-62
2020/12/07 09:23:01;;;;;;;14.40;12.20;;;11.70;99.90;;;8.60;100.00;98842.09;5024070;27;101564;-63
2020/12/07 09:25:27;;;;;;;14.93;12.03;;;11.20;99.90;;;8.55;100.00;98846.31;5004745;27;100251;-62
2020/12/07 09:27:55;;;;;;;13.93;12.47;;;10.60;99.90;;;8.60;100.00;98859.94;5009511;27;100032;-63
2020/12/07 09:30:21;;;;;;;14.77;11.57;;;10.50;99.90;;;8.57;100.00;98868.28;5024232;27;100076;-62
2020/12/07 09:32:48;;;;;;;13.90;11.80;;;10.50;99.90;;;8.59;100.00;98866.28;5004302;27;100724;-63
2020/12/07 09:35:14;;;;;;;15.90;13.30;;;10.50;99.90;;;8.58;100.00;98868.13;5003472;27;100308;-62
2020/12/07 09:37:41;;;;;;;16.73;12.67;;;10.60;99.90;;;8.60;100.00;98879.44;5004067;27;99901;-63
2020/12/07 09:40:10;;;;;;;13.23;11.43;;;10.80;99.90;;;8.58;100.00;98869.94;5004187;27;99983;-62
2020/12/07 09:42:38;;;;;;;14.67;11.87;;;11.60;99.90;;;8.58;100.00;98865.44;5004632;27;100861;-62
2020/12/07 09:45:06;;;;;;;14.50;12.77;;;10.60;99.90;;;8.60;100.00;98873.28;5003755;27;100709;-63
2020/12/07 09:47:33;;;;;;;14.30;12.03;;;11.00;99.90;;;8.62;100.00;98866.75;5003819;27;99923;-63
2020/12/07 09:49:59;;;;;;;17.13;12.03;;;10.60;99.90;;;8.60;100.00;98865.28;5003469;27;100113;-63
2020/12/07 09:52:26;;;;;;;14.67;12.20;;;10.70;99.90;;;8.60;100.00;98867.94;5003844;27;100884;-61
2020/12/07 09:54:53;;;;;;;15.80;13.10;;;10.50;99.90;;;8.58;100.00;98870.78;5014027;27;101582;-65
2020/12/07 09:57:19;;;;;;;15.67;13.37;;;10.60;99.90;;;8.56;100.00;98859.47;5004133;27;100125;-64
2020/12/07 09:59:48;;;;;;;18.13;15.20;;;10.60;99.90;;;8.54;100.00;98866.81;5017208;27;100135;-63
2020/12/07 10:02:16;;;;;;;14.30;12.50;;;10.70;99.90;;;8.61;100.00;98861.59;5023827;27;101190;-63
2020/12/07 10:04:43;;;;;;;15.40;13.27;;;11.00;99.90;;;8.61;100.00;98859.75;5022539;27;100496;-63
2020/12/07 10:07:09;;;;;;;14.37;12.87;;;10.60;99.90;;;8.63;100.00;98855.09;5016359;27;100437;-64
2020/12/07 10:09:36;;;;;;;15.73;13.40;;;10.70;99.90;;;8.65;100.00;98857.56;5019406;27;99950;-63
2020/12/07 10:12:03;;;;;;;15.93;13.27;;;10.60;99.90;;;8.63;100.00;98864.91;5022137;27;100981;-63
2020/12/07 10:14:29;;;;;;;14.00;11.60;;;10.60;99.90;;;8.62;100.00;98868.59;5003603;27;100892;-62
2020/12/07 10:16:57;;;;;;;15.37;12.47;;;10.60;99.90;;;8.61;100.00;98874.94;5004071;27;99934;-63
2020/12/07 10:19:25;;;;;;;13.90;12.10;;;10.70;99.90;;;8.60;100.00;98874.09;5004183;27;100215;-62
2020/12/07 10:21:51;;;;;;;14.83;12.47;;;10.70;99.90;;;8.59;100.00;98880.44;5003349;27;101027;-63
2020/12/07 10:24:18;;;;;;;13.17;11.03;;;10.60;99.90;;;8.59;100.00;98882.28;5002726;27;101164;-62
2020/12/07 10:26:44;;;;;;;14.33;12.47;;;10.60;99.90;;;8.63;100.00;98879.09;5002242;27;100164;-62
2020/12/07 10:29:11;;;;;;;14.20;12.43;;;11.70;99.90;;;8.62;100.00;98874.75;5002928;27;99993;-62
2020/12/07 10:31:40;;;;;;;19.67;15.83;;;10.60;99.90;;;8.65;100.00;98878.91;5019045;27;101480;-63
2020/12/07 10:34:07;;;;;;;18.47;15.33;;;10.70;99.90;;;8.66;100.00;98877.88;5022317;27;100691;-62
2020/12/07 10:36:34;;;;;;;18.30;16.13;;;10.70;99.90;;;8.69;100.00;98882.84;5023376;27;100037;-63
2020/12/07 10:39:00;;;;;;;14.57;12.67;;;10.60;99.90;;;8.68;100.00;98886.53;5023368;27;100318;-61
2020/12/07 10:41:27;;;;;;;16.53;12.73;;;11.70;99.90;;;8.70;100.00;98884.50;5023018;27;101434;-62
2020/12/07 10:43:54;;;;;;;18.23;14.10;;;10.70;99.90;;;8.72;100.00;98895.84;5023926;27;101390;-61
2020/12/07 10:46:21;;;;;;;14.87;13.37;;;10.70;99.90;;;8.69;100.00;98906.84;5023275;27;100129;-61